Time;durP1;ratioP1;P1;durP2;ratioP2;P2;SDS_P1;SDS_P2;PMS_P1;PMS_P2;Temp;Humidity;BMP_temperature;BMP_pressure;BME280_temperature;BME280_humidity;BME280_pressure;Samples;Min_cycle;Max_cycle;Signal;HPM_P1;HPM_P2
2022/12/16 00:01:16;;;;;;;10.97;4.83;;;-2.00;99.90;;;;;;5033127;28;20506;-66
2022/12/16 00:03:47;;;;;;;10.90;5.90;;;-2.00;99.90;;;;;;5030433;28;20446;-66
2022/12/16 00:06:13;;;;;;;9.87;5.10;;;-2.10;99.90;;;;;;5021803;28;20448;-66
2022/12/16 00:08:39;;;;;;;12.17;4.83;;;-2.10;99.90;;;;;;5007612;28;20456;-66
2022/12/16 00:11:06;;;;;;;9.73;4.50;;;-2.20;99.90;;;;;;5008871;28;20467;-66
2022/12/16 00:13:33;;;;;;;12.10;4.23;;;-2.10;99.90;;;;;;5022443;28;20223;-66
2022/12/16 00:16:07;;;;;;;16.63;4.83;;;-2.10;99.90;;;;;;5017310;28;20466;-65
2022/12/16 00:18:32;;;;;;;7.67;4.70;;;-2.20;99.90;;;;;;5029100;28;20530;-67
2022/12/16 00:20:58;;;;;;;8.80;3.90;;;-2.20;99.90;;;;;;5022152;28;20953;-67
2022/12/16 00:23:24;;;;;;;7.47;4.30;;;-2.20;99.90;;;;;;5033163;28;20249;-66
2022/12/16 00:25:50;;;;;;;13.67;5.20;;;-2.20;99.90;;;;;;5037571;28;20466;-66
2022/12/16 00:28:16;;;;;;;8.70;3.80;;;-2.20;99.90;;;;;;5031594;28;20311;-67
2022/12/16 00:30:43;;;;;;;8.43;4.60;;;-2.10;99.90;;;;;;5022294;28;20219;-66
2022/12/16 00:33:09;;;;;;;11.27;4.40;;;-2.10;99.90;;;;;;5031938;28;20455;-67
2022/12/16 00:35:35;;;;;;;10.43;5.10;;;-2.10;99.90;;;;;;5032054;28;20471;-66
2022/12/16 00:38:00;;;;;;;10.97;5.30;;;-2.10;99.90;;;;;;5010501;28;20300;-66
2022/12/16 00:40:26;;;;;;;10.87;5.53;;;-2.10;99.90;;;;;;5006265;28;20715;-66
2022/12/16 00:42:52;;;;;;;7.83;4.87;;;-2.10;99.90;;;;;;4995991;28;20225;-67
2022/12/16 00:45:18;;;;;;;11.07;5.17;;;-2.20;99.90;;;;;;5039707;28;20235;-66
2022/12/16 00:47:43;;;;;;;9.27;5.43;;;-2.30;99.90;;;;;;5045728;28;20768;-66
2022/12/16 00:50:10;;;;;;;7.60;3.83;;;-2.40;99.90;;;;;;5043154;28;20216;-66
2022/12/16 00:52:36;;;;;;;6.73;3.20;;;-2.30;99.90;;;;;;5034708;28;20226;-66
2022/12/16 00:55:01;;;;;;;11.00;4.40;;;-2.30;99.90;;;;;;5043660;28;20451;-66
2022/12/16 00:57:27;;;;;;;8.13;4.10;;;-2.30;99.90;;;;;;5037693;28;20442;-66
2022/12/16 00:59:53;;;;;;;11.37;4.50;;;-2.30;99.90;;;;;;5040814;28;20224;-66
2022/12/16 01:02:18;;;;;;;8.70;4.27;;;-2.40;99.90;;;;;;5029465;28;20216;-66
2022/12/16 01:04:44;;;;;;;8.23;3.50;;;-2.30;99.90;;;;;;5033570;28;20619;-66
2022/12/16 01:07:10;;;;;;;9.23;3.50;;;-2.30;99.90;;;;;;5019125;28;20313;-66
2022/12/16 01:09:35;;;;;;;6.93;3.33;;;-2.30;99.90;;;;;;5036754;28;20306;-67
2022/12/16 01:12:01;;;;;;;12.03;5.67;;;-2.30;99.90;;;;;;5003355;28;20237;-66
2022/12/16 01:14:27;;;;;;;11.70;5.43;;;-2.20;99.90;;;;;;5035366;28;20311;-66
2022/12/16 01:16:53;;;;;;;11.13;4.60;;;-2.20;99.90;;;;;;5026222;28;20285;-65
2022/12/16 01:19:18;;;;;;;7.73;4.10;;;-2.30;99.90;;;;;;5032173;28;20236;-65
2022/12/16 01:21:44;;;;;;;9.10;4.00;;;-2.20;99.90;;;;;;5013309;28;20233;-66
2022/12/16 01:24:10;;;;;;;9.17;5.13;;;-2.20;99.90;;;;;;5032627;28;20219;-66
2022/12/16 01:26:36;;;;;;;7.07;3.70;;;-2.30;99.90;;;;;;5022706;28;20833;-67
2022/12/16 01:29:01;;;;;;;10.07;4.67;;;-2.30;99.90;;;;;;5018796;28;20224;-66
2022/12/16 01:31:27;;;;;;;5.70;3.40;;;-2.30;99.90;;;;;;5042429;28;20223;-66
2022/12/16 01:33:53;;;;;;;9.77;4.63;;;-2.30;99.90;;;;;;5042578;28;20306;-67
2022/12/16 01:36:19;;;;;;;13.20;3.47;;;-2.40;99.90;;;;;;5032142;28;20224;-67
2022/12/16 01:38:44;;;;;;;6.53;2.90;;;-2.50;99.90;;;;;;5023027;28;20217;-67
2022/12/16 01:41:12;;;;;;;7.70;3.17;;;-2.60;99.90;;;;;;5012379;28;20259;-67
2022/12/16 01:43:40;;;;;;;10.23;3.43;;;-2.50;99.90;;;;;;5030931;28;20224;-66
2022/12/16 01:46:11;;;;;;;6.30;3.17;;;-2.50;99.90;;;;;;5031914;28;20456;-67
2022/12/16 01:48:37;;;;;;;9.10;3.20;;;-2.40;99.90;;;;;;5029352;28;20912;-65
2022/12/16 01:51:29;;;;;;;6.40;2.50;;;-2.50;99.90;;;;;;5012768;28;20558;-66
2022/12/16 01:54:19;;;;;;;4.60;3.20;;;-2.50;99.90;;;;;;5030632;28;20231;-67
2022/12/16 01:56:56;;;;;;;4.70;2.30;;;-2.50;99.90;;;;;;5032496;28;20464;-66
2022/12/16 01:59:24;;;;;;;5.77;3.47;;;-2.50;99.90;;;;;;5037762;28;20513;-66
2022/12/16 02:01:50;;;;;;;3.80;1.60;;;-2.50;99.90;;;;;;5024335;28;20532;-66
2022/12/16 02:04:15;;;;;;;5.30;3.30;;;-2.50;99.90;;;;;;5036574;28;20453;-66
2022/12/16 02:06:41;;;;;;;2.20;1.83;;;-2.50;99.90;;;;;;5026805;28;20231;-66
2022/12/16 02:09:10;;;;;;;6.80;3.57;;;-2.60;99.90;;;;;;5029352;28;20222;-66
2022/12/16 02:11:54;;;;;;;7.80;2.87;;;-2.60;99.90;;;;;;5038829;28;20230;-68
2022/12/16 02:14:44;;;;;;;2.17;1.90;;;-2.50;99.90;;;;;;5023508;28;20955;-67
2022/12/16 02:17:28;;;;;;;4.80;3.10;;;-2.60;99.90;;;;;;5018205;28;20457;-68
2022/12/16 02:20:03;;;;;;;4.30;3.07;;;-2.60;99.90;;;;;;5030617;28;21025;-67
2022/12/16 02:22:41;;;;;;;7.93;2.77;;;-2.60;99.90;;;;;;5041258;28;20470;-67
2022/12/16 02:25:33;;;;;;;4.17;2.53;;;-2.50;99.90;;;;;;5014076;28;21098;-67
2022/12/16 02:28:41;;;;;;;2.83;2.33;;;-2.60;99.90;;;;;;5035662;28;20468;-67
2022/12/16 02:31:24;;;;;;;4.90;2.00;;;-2.60;99.90;;;;;;5006704;28;20448;-68
2022/12/16 02:34:21;;;;;;;7.53;2.33;;;-2.60;99.90;;;;;;5029452;28;20477;-67
2022/12/16 02:37:02;;;;;;;3.73;2.37;;;-2.60;99.90;;;;;;5032437;28;20478;-67
2022/12/16 02:39:36;;;;;;;6.13;1.97;;;-2.70;99.90;;;;;;5010742;28;20471;-67
2022/12/16 02:42:14;;;;;;;3.63;2.47;;;-2.70;99.90;;;;;;4991142;28;20469;-65
2022/12/16 02:44:56;;;;;;;6.13;2.40;;;-2.70;99.90;;;;;;5009641;28;20464;-67
2022/12/16 02:47:23;;;;;;;4.97;2.47;;;-2.80;99.90;;;;;;5006771;28;20458;-67
2022/12/16 02:49:51;;;;;;;6.47;3.17;;;-2.70;99.90;;;;;;5028823;28;20459;-67
2022/12/16 02:52:30;;;;;;;5.73;1.83;;;-2.70;99.90;;;;;;5003235;28;20452;-67
2022/12/16 02:55:06;;;;;;;5.30;1.63;;;-2.60;99.90;;;;;;5017736;28;20489;-67
2022/12/16 02:58:14;;;;;;;7.43;4.03;;;-2.60;99.90;;;;;;5034881;28;20479;-66
2022/12/16 03:00:46;;;;;;;4.30;2.67;;;-2.60;99.90;;;;;;5032983;28;20998;-67
2022/12/16 03:03:18;;;;;;;6.07;3.77;;;-2.60;99.90;;;;;;5017249;28;20452;-67
2022/12/16 03:05:47;;;;;;;9.90;5.20;;;-2.60;99.90;;;;;;5028788;28;20456;-67
2022/12/16 03:08:43;;;;;;;4.50;2.40;;;-2.70;99.90;;;;;;5027446;28;20542;-67
2022/12/16 03:11:09;;;;;;;8.53;3.27;;;-2.70;99.90;;;;;;5018286;28;20448;-67
2022/12/16 03:13:43;;;;;;;5.57;2.83;;;-2.70;99.90;;;;;;5013374;28;20452;-68
2022/12/16 03:16:12;;;;;;;8.43;3.30;;;-2.70;99.90;;;;;;5025756;28;20456;-67
2022/12/16 03:18:42;;;;;;;6.87;4.20;;;-2.70;99.90;;;;;;4986771;28;20447;-66
2022/12/16 03:21:09;;;;;;;6.00;3.13;;;-2.80;99.90;;;;;;5033605;28;20466;-67
2022/12/16 03:23:47;;;;;;;10.90;2.97;;;-2.80;99.90;;;;;;5032485;28;20463;-67
2022/12/16 03:26:23;;;;;;;5.23;3.13;;;-2.80;99.90;;;;;;5021450;28;20455;-66
2022/12/16 03:29:01;;;;;;;3.03;1.90;;;-2.80;99.90;;;;;;5009516;28;20448;-68
2022/12/16 03:31:30;;;;;;;6.40;2.13;;;-2.80;99.90;;;;;;4990466;28;20457;-67
2022/12/16 03:34:02;;;;;;;13.50;3.67;;;-2.80;99.90;;;;;;5027316;28;20448;-67
2022/12/16 03:36:32;;;;;;;5.03;2.03;;;-2.80;99.90;;;;;;5024005;28;20474;-67
2022/12/16 03:39:00;;;;;;;2.77;2.30;;;-2.80;99.90;;;;;;5026128;28;20622;-67
2022/12/16 03:41:28;;;;;;;4.20;2.60;;;-2.90;99.90;;;;;;5042796;28;20932;-67
2022/12/16 03:43:54;;;;;;;5.97;2.63;;;-2.90;99.90;;;;;;5037442;28;20551;-67
2022/12/16 03:46:20;;;;;;;2.67;2.43;;;-2.90;99.90;;;;;;5034460;28;20548;-67
2022/12/16 03:48:48;;;;;;;4.43;1.90;;;-2.90;99.90;;;;;;5016142;28;20479;-67
2022/12/16 03:51:14;;;;;;;5.60;2.33;;;-2.90;99.90;;;;;;5037049;28;20223;-67
2022/12/16 03:53:41;;;;;;;8.53;3.10;;;-3.00;99.90;;;;;;5049569;28;20438;-67
2022/12/16 03:56:07;;;;;;;3.83;2.20;;;-3.00;99.90;;;;;;5036623;28;20471;-67
2022/12/16 03:58:34;;;;;;;5.77;3.17;;;-3.00;99.90;;;;;;5028844;28;20455;-67
2022/12/16 04:01:00;;;;;;;8.00;2.30;;;-3.00;99.90;;;;;;5041372;28;20479;-67
2022/12/16 04:03:26;;;;;;;4.03;1.90;;;-3.00;99.90;;;;;;5038670;28;20556;-67
2022/12/16 04:05:52;;;;;;;5.73;1.80;;;-3.00;99.90;;;;;;5020312;28;20488;-67
2022/12/16 04:08:17;;;;;;;6.77;2.23;;;-3.00;99.90;;;;;;5032030;28;20483;-67
2022/12/16 04:24:31;;;;;;;5.50;2.40;;;-3.90;99.90;;;;;;5029977;28;20563;-67
